sensor_id;sensor_type;location;lat;lon;timestamp;P1;durP1;ratioP1;P2;durP2;ratioP2
69937;SDS011;57248;47.320;15.998;2023-02-28T00:00:09;8.35;;;2.38;;
69937;SDS011;57248;47.320;15.998;2023-02-28T00:02:44;7.18;;;2.53;;
69937;SDS011;57248;47.320;15.998;2023-02-28T00:05:17;9.03;;;2.57;;
69937;SDS011;57248;47.320;15.998;2023-02-28T00:07:52;8.07;;;2.38;;
69937;SDS011;57248;47.320;15.998;2023-02-28T00:10:26;6.65;;;2.20;;
69937;SDS011;57248;47.320;15.998;2023-02-28T00:13:06;6.97;;;2.05;;
69937;SDS011;57248;47.320;15.998;2023-02-28T00:15:38;7.75;;;2.20;;
69937;SDS011;57248;47.320;15.998;2023-02-28T00:18:04;8.77;;;2.53;;
69937;SDS011;57248;47.320;15.998;2023-02-28T00:20:37;7.30;;;2.40;;
69937;SDS011;57248;47.320;15.998;2023-02-28T00:23:08;7.77;;;2.60;;
69937;SDS011;57248;47.320;15.998;2023-02-28T00:25:40;6.80;;;2.10;;
69937;SDS011;57248;47.320;15.998;2023-02-28T00:28:12;7.95;;;2.17;;
69937;SDS011;57248;47.320;15.998;2023-02-28T00:30:44;10.35;;;2.58;;
69937;SDS011;57248;47.320;15.998;2023-02-28T00:33:16;6.90;;;2.25;;
69937;SDS011;57248;47.320;15.998;2023-02-28T00:35:48;7.80;;;2.20;;
69937;SDS011;57248;47.320;15.998;2023-02-28T00:38:20;6.85;;;2.15;;
69937;SDS011;57248;47.320;15.998;2023-02-28T00:40:52;8.23;;;2.70;;
69937;SDS011;57248;47.320;15.998;2023-02-28T00:43:24;7.63;;;2.10;;
69937;SDS011;57248;47.320;15.998;2023-02-28T00:45:56;7.68;;;2.60;;
69937;SDS011;57248;47.320;15.998;2023-02-28T00:48:29;7.67;;;2.27;;
69937;SDS011;57248;47.320;15.998;2023-02-28T00:51:02;6.38;;;2.05;;
69937;SDS011;57248;47.320;15.998;2023-02-28T00:53:33;9.65;;;2.80;;
69937;SDS011;57248;47.320;15.998;2023-02-28T00:56:05;7.72;;;2.35;;
69937;SDS011;57248;47.320;15.998;2023-02-28T00:58:37;8.68;;;2.58;;
69937;SDS011;57248;47.320;15.998;2023-02-28T01:01:03;7.93;;;2.80;;
69937;SDS011;57248;47.320;15.998;2023-02-28T01:03:37;6.68;;;2.10;;
69937;SDS011;57248;47.320;15.998;2023-02-28T01:06:09;7.30;;;2.47;;
69937;SDS011;57248;47.320;15.998;2023-02-28T01:08:41;7.65;;;2.05;;
69937;SDS011;57248;47.320;15.998;2023-02-28T01:11:15;7.93;;;2.60;;
69937;SDS011;57248;47.320;15.998;2023-02-28T01:13:47;7.05;;;1.92;;
69937;SDS011;57248;47.320;15.998;2023-02-28T01:16:26;8.30;;;2.58;;
69937;SDS011;57248;47.320;15.998;2023-02-28T01:18:58;8.07;;;2.47;;
69937;SDS011;57248;47.320;15.998;2023-02-28T01:21:31;8.63;;;2.65;;
69937;SDS011;57248;47.320;15.998;2023-02-28T01:24:03;7.60;;;2.58;;
69937;SDS011;57248;47.320;15.998;2023-02-28T01:26:29;7.75;;;2.33;;
69937;SDS011;57248;47.320;15.998;2023-02-28T01:29:06;6.97;;;2.47;;
69937;SDS011;57248;47.320;15.998;2023-02-28T01:31:37;9.77;;;2.53;;
69937;SDS011;57248;47.320;15.998;2023-02-28T01:34:10;8.60;;;2.60;;
69937;SDS011;57248;47.320;15.998;2023-02-28T01:36:41;6.70;;;2.40;;
69937;SDS011;57248;47.320;15.998;2023-02-28T01:39:13;8.13;;;2.63;;
69937;SDS011;57248;47.320;15.998;2023-02-28T01:41:45;9.13;;;2.85;;
69937;SDS011;57248;47.320;15.998;2023-02-28T01:47:20;6.90;;;2.63;;
69937;SDS011;57248;47.320;15.998;2023-02-28T01:49:56;10.13;;;2.80;;
69937;SDS011;57248;47.320;15.998;2023-02-28T01:52:29;8.20;;;2.90;;
69937;SDS011;57248;47.320;15.998;2023-02-28T01:55:02;9.52;;;3.05;;
69937;SDS011;57248;47.320;15.998;2023-02-28T01:57:45;9.32;;;3.10;;
69937;SDS011;57248;47.320;15.998;2023-02-28T02:00:20;10.60;;;3.20;;
69937;SDS011;57248;47.320;15.998;2023-02-28T02:02:59;9.38;;;2.75;;
69937;SDS011;57248;47.320;15.998;2023-02-28T02:05:38;8.10;;;2.43;;
69937;SDS011;57248;47.320;15.998;2023-02-28T02:08:13;8.05;;;2.80;;
69937;SDS011;57248;47.320;15.998;2023-02-28T02:10:50;7.93;;;2.53;;
69937;SDS011;57248;47.320;15.998;2023-02-28T02:25:23;7.32;;;2.30;;
69937;SDS011;57248;47.320;15.998;2023-02-28T02:39:48;7.38;;;2.13;;
69937;SDS011;57248;47.320;15.998;2023-02-28T02:42:34;9.25;;;2.78;;
69937;SDS011;57248;47.320;15.998;2023-02-28T02:48:13;8.13;;;2.40;;
69937;SDS011;57248;47.320;15.998;2023-02-28T02:50:51;9.02;;;2.65;;
69937;SDS011;57248;47.320;15.998;2023-02-28T02:53:36;7.40;;;2.22;;
69937;SDS011;57248;47.320;15.998;2023-02-28T02:56:12;7.95;;;2.47;;
69937;SDS011;57248;47.320;15.998;2023-02-28T02:58:45;8.90;;;2.97;;
69937;SDS011;57248;47.320;15.998;2023-02-28T03:01:20;12.53;;;3.20;;
69937;SDS011;57248;47.320;15.998;2023-02-28T03:04:03;7.05;;;2.55;;
69937;SDS011;57248;47.320;15.998;2023-02-28T03:06:41;7.78;;;2.40;;
69937;SDS011;57248;47.320;15.998;2023-02-28T03:09:12;8.15;;;2.10;;
69937;SDS011;57248;47.320;15.998;2023-02-28T03:11:52;9.05;;;2.20;;
69937;SDS011;57248;47.320;15.998;2023-02-28T03:17:30;8.38;;;2.38;;
69937;SDS011;57248;47.320;15.998;2023-02-28T03:20:33;10.60;;;2.42;;
69937;SDS011;57248;47.320;15.998;2023-02-28T03:23:16;8.23;;;2.30;;
69937;SDS011;57248;47.320;15.998;2023-02-28T03:25:59;7.28;;;2.05;;
69937;SDS011;57248;47.320;15.998;2023-02-28T03:31:19;7.22;;;2.72;;
69937;SDS011;57248;47.320;15.998;2023-02-28T03:36:38;7.65;;;2.50;;
69937;SDS011;57248;47.320;15.998;2023-02-28T03:39:19;7.72;;;2.25;;
69937;SDS011;57248;47.320;15.998;2023-02-28T03:41:58;8.00;;;2.23;;
69937;SDS011;57248;47.320;15.998;2023-02-28T03:44:35;8.88;;;2.45;;
69937;SDS011;57248;47.320;15.998;2023-02-28T03:47:16;8.63;;;2.47;;
69937;SDS011;57248;47.320;15.998;2023-02-28T03:52:31;8.23;;;2.67;;
69937;SDS011;57248;47.320;15.998;2023-02-28T03:55:07;9.07;;;2.63;;
69937;SDS011;57248;47.320;15.998;2023-02-28T03:57:44;9.20;;;2.95;;
69937;SDS011;57248;47.320;15.998;2023-02-28T04:00:29;9.80;;;2.92;;
69937;SDS011;57248;47.320;15.998;2023-02-28T04:03:05;8.73;;;2.47;;
69937;SDS011;57248;47.320;15.998;2023-02-28T04:05:30;10.10;;;2.73;;
69937;SDS011;57248;47.320;15.998;2023-02-28T04:08:04;8.40;;;2.85;;
69937;SDS011;57248;47.320;15.998;2023-02-28T04:10:37;7.68;;;2.40;;
69937;SDS011;57248;47.320;15.998;2023-02-28T04:13:10;9.00;;;2.53;;
69937;SDS011;57248;47.320;15.998;2023-02-28T04:15:46;9.73;;;3.35;;
69937;SDS011;57248;47.320;15.998;2023-02-28T04:18:18;9.20;;;2.80;;
69937;SDS011;57248;47.320;15.998;2023-02-28T04:20:52;8.45;;;2.47;;
69937;SDS011;57248;47.320;15.998;2023-02-28T04:23:17;9.45;;;2.90;;
69937;SDS011;57248;47.320;15.998;2023-02-28T04:25:49;7.57;;;2.67;;
69937;SDS011;57248;47.320;15.998;2023-02-28T04:28:22;7.95;;;2.67;;
69937;SDS011;57248;47.320;15.998;2023-02-28T04:30:58;7.07;;;2.70;;
69937;SDS011;57248;47.320;15.998;2023-02-28T04:33:32;9.82;;;2.65;;
69937;SDS011;57248;47.320;15.998;2023-02-28T04:36:05;8.88;;;2.75;;
69937;SDS011;57248;47.320;15.998;2023-02-28T04:38:39;8.95;;;3.10;;
69937;SDS011;57248;47.320;15.998;2023-02-28T04:41:12;10.88;;;3.08;;
69937;SDS011;57248;47.320;15.998;2023-02-28T04:43:44;10.43;;;3.00;;
69937;SDS011;57248;47.320;15.998;2023-02-28T04:46:16;9.85;;;3.10;;
69937;SDS011;57248;47.320;15.998;2023-02-28T04:48:49;10.20;;;3.13;;
69937;SDS011;57248;47.320;15.998;2023-02-28T04:51:21;9.98;;;3.38;;
69937;SDS011;57248;47.320;15.998;2023-02-28T04:53:54;8.32;;;2.88;;
69937;SDS011;57248;47.320;15.998;2023-02-28T04:56:25;8.43;;;2.97;;
69937;SDS011;57248;47.320;15.998;2023-02-28T04:58:57;9.70;;;3.03;;
69937;SDS011;57248;47.320;15.998;2023-02-28T05:01:31;9.48;;;2.58;;
69937;SDS011;57248;47.320;15.998;2023-02-28T05:04:05;10.13;;;3.05;;
69937;SDS011;57248;47.320;15.998;2023-02-28T05:06:37;9.07;;;2.92;;
69937;SDS011;57248;47.320;15.998;2023-02-28T05:09:09;9.60;;;3.30;;
69937;SDS011;57248;47.320;15.998;2023-02-28T05:11:44;11.85;;;3.42;;
69937;SDS011;57248;47.320;15.998;2023-02-28T05:14:23;9.15;;;3.05;;
69937;SDS011;57248;47.320;15.998;2023-02-28T05:16:55;8.35;;;2.85;;
69937;SDS011;57248;47.320;15.998;2023-02-28T05:19:27;10.43;;;3.00;;
69937;SDS011;57248;47.320;15.998;2023-02-28T05:21:54;9.47;;;3.10;;
69937;SDS011;57248;47.320;15.998;2023-02-28T05:24:27;10.23;;;3.50;;
69937;SDS011;57248;47.320;15.998;2023-02-28T05:26:53;12.90;;;4.33;;
69937;SDS011;57248;47.320;15.998;2023-02-28T05:29:25;11.80;;;4.03;;
69937;SDS011;57248;47.320;15.998;2023-02-28T05:31:57;12.40;;;4.78;;
69937;SDS011;57248;47.320;15.998;2023-02-28T05:34:23;12.30;;;3.47;;
69937;SDS011;57248;47.320;15.998;2023-02-28T05:36:54;13.30;;;4.10;;
69937;SDS011;57248;47.320;15.998;2023-02-28T05:39:27;11.27;;;3.53;;
69937;SDS011;57248;47.320;15.998;2023-02-28T05:41:59;18.15;;;4.35;;
69937;SDS011;57248;47.320;15.998;2023-02-28T05:44:33;10.75;;;3.95;;
69937;SDS011;57248;47.320;15.998;2023-02-28T05:47:04;10.57;;;3.95;;
69937;SDS011;57248;47.320;15.998;2023-02-28T05:49:37;10.32;;;3.60;;
69937;SDS011;57248;47.320;15.998;2023-02-28T05:52:08;11.73;;;4.00;;
69937;SDS011;57248;47.320;15.998;2023-02-28T05:54:34;10.07;;;3.83;;
69937;SDS011;57248;47.320;15.998;2023-02-28T05:57:05;13.80;;;3.60;;
69937;SDS011;57248;47.320;15.998;2023-02-28T05:59:37;9.82;;;3.58;;
69937;SDS011;57248;47.320;15.998;2023-02-28T06:02:11;11.00;;;3.25;;
69937;SDS011;57248;47.320;15.998;2023-02-28T06:04:44;10.20;;;3.70;;
69937;SDS011;57248;47.320;15.998;2023-02-28T06:07:16;10.82;;;4.25;;
69937;SDS011;57248;47.320;15.998;2023-02-28T06:09:48;12.13;;;3.77;;
69937;SDS011;57248;47.320;15.998;2023-02-28T06:12:20;11.25;;;4.00;;
69937;SDS011;57248;47.320;15.998;2023-02-28T06:14:52;11.27;;;3.30;;
69937;SDS011;57248;47.320;15.998;2023-02-28T06:17:31;10.77;;;3.53;;
69937;SDS011;57248;47.320;15.998;2023-02-28T06:20:05;9.40;;;3.17;;
69937;SDS011;57248;47.320;15.998;2023-02-28T06:22:38;11.30;;;3.60;;
69937;SDS011;57248;47.320;15.998;2023-02-28T06:25:10;10.32;;;3.45;;
69937;SDS011;57248;47.320;15.998;2023-02-28T06:27:43;13.18;;;4.10;;
69937;SDS011;57248;47.320;15.998;2023-02-28T06:30:14;11.73;;;3.80;;
69937;SDS011;57248;47.320;15.998;2023-02-28T06:32:47;10.77;;;4.15;;
69937;SDS011;57248;47.320;15.998;2023-02-28T06:35:21;11.47;;;3.70;;
69937;SDS011;57248;47.320;15.998;2023-02-28T06:37:52;11.50;;;4.00;;
69937;SDS011;57248;47.320;15.998;2023-02-28T06:40:24;13.23;;;4.18;;
69937;SDS011;57248;47.320;15.998;2023-02-28T06:42:56;14.50;;;4.75;;
69937;SDS011;57248;47.320;15.998;2023-02-28T06:45:28;15.35;;;4.63;;
69937;SDS011;57248;47.320;15.998;2023-02-28T06:47:54;12.70;;;4.40;;
69937;SDS011;57248;47.320;15.998;2023-02-28T06:50:26;10.88;;;3.70;;
69937;SDS011;57248;47.320;15.998;2023-02-28T06:52:54;10.07;;;4.03;;
69937;SDS011;57248;47.320;15.998;2023-02-28T06:55:26;11.15;;;4.60;;
69937;SDS011;57248;47.320;15.998;2023-02-28T06:57:58;11.63;;;4.28;;
69937;SDS011;57248;47.320;15.998;2023-02-28T07:00:30;12.63;;;4.30;;
69937;SDS011;57248;47.320;15.998;2023-02-28T07:03:03;13.63;;;4.43;;
69937;SDS011;57248;47.320;15.998;2023-02-28T07:05:35;14.10;;;4.80;;
69937;SDS011;57248;47.320;15.998;2023-02-28T07:08:08;12.23;;;4.88;;
69937;SDS011;57248;47.320;15.998;2023-02-28T07:10:41;11.30;;;4.63;;
69937;SDS011;57248;47.320;15.998;2023-02-28T07:13:20;12.63;;;4.70;;
69937;SDS011;57248;47.320;15.998;2023-02-28T07:15:56;13.73;;;5.43;;
69937;SDS011;57248;47.320;15.998;2023-02-28T07:18:30;12.83;;;5.03;;
69937;SDS011;57248;47.320;15.998;2023-02-28T07:21:07;12.25;;;4.80;;
69937;SDS011;57248;47.320;15.998;2023-02-28T07:23:40;14.57;;;5.30;;
69937;SDS011;57248;47.320;15.998;2023-02-28T07:26:14;15.27;;;5.82;;
69937;SDS011;57248;47.320;15.998;2023-02-28T07:28:49;15.07;;;6.03;;
69937;SDS011;57248;47.320;15.998;2023-02-28T07:31:21;16.20;;;6.07;;
69937;SDS011;57248;47.320;15.998;2023-02-28T07:33:47;15.37;;;6.23;;
69937;SDS011;57248;47.320;15.998;2023-02-28T07:36:19;19.30;;;6.37;;
69937;SDS011;57248;47.320;15.998;2023-02-28T07:38:51;17.02;;;6.70;;
69937;SDS011;57248;47.320;15.998;2023-02-28T07:41:23;17.52;;;6.32;;
69937;SDS011;57248;47.320;15.998;2023-02-28T07:43:59;19.45;;;6.68;;
69937;SDS011;57248;47.320;15.998;2023-02-28T07:46:31;17.40;;;6.50;;
69937;SDS011;57248;47.320;15.998;2023-02-28T07:49:00;19.37;;;7.10;;
69937;SDS011;57248;47.320;15.998;2023-02-28T07:51:33;17.70;;;7.22;;
69937;SDS011;57248;47.320;15.998;2023-02-28T07:54:06;17.75;;;6.68;;
69937;SDS011;57248;47.320;15.998;2023-02-28T07:56:38;14.75;;;6.05;;
69937;SDS011;57248;47.320;15.998;2023-02-28T07:59:10;15.23;;;5.00;;
69937;SDS011;57248;47.320;15.998;2023-02-28T08:01:42;16.53;;;6.10;;
69937;SDS011;57248;47.320;15.998;2023-02-28T08:04:16;13.13;;;5.38;;
69937;SDS011;57248;47.320;15.998;2023-02-28T08:06:48;18.80;;;7.40;;
69937;SDS011;57248;47.320;15.998;2023-02-28T08:09:24;19.05;;;6.30;;
69937;SDS011;57248;47.320;15.998;2023-02-28T08:11:57;16.15;;;6.05;;
69937;SDS011;57248;47.320;15.998;2023-02-28T08:14:29;15.50;;;5.37;;
69937;SDS011;57248;47.320;15.998;2023-02-28T08:17:11;15.75;;;5.97;;
69937;SDS011;57248;47.320;15.998;2023-02-28T08:19:45;14.07;;;5.80;;
69937;SDS011;57248;47.320;15.998;2023-02-28T08:22:17;14.20;;;5.60;;
69937;SDS011;57248;47.320;15.998;2023-02-28T08:24:43;18.43;;;6.00;;
69937;SDS011;57248;47.320;15.998;2023-02-28T08:27:15;16.52;;;5.60;;
69937;SDS011;57248;47.320;15.998;2023-02-28T08:29:49;15.63;;;6.55;;
69937;SDS011;57248;47.320;15.998;2023-02-28T08:32:21;17.10;;;6.50;;
69937;SDS011;57248;47.320;15.998;2023-02-28T08:34:55;15.48;;;5.30;;
69937;SDS011;57248;47.320;15.998;2023-02-28T08:37:28;16.30;;;5.80;;
69937;SDS011;57248;47.320;15.998;2023-02-28T08:39:53;30.37;;;10.47;;
69937;SDS011;57248;47.320;15.998;2023-02-28T08:42:25;25.88;;;8.85;;
69937;SDS011;57248;47.320;15.998;2023-02-28T08:44:56;23.67;;;8.13;;
69937;SDS011;57248;47.320;15.998;2023-02-28T08:47:28;16.45;;;5.93;;
69937;SDS011;57248;47.320;15.998;2023-02-28T08:50:12;14.60;;;5.30;;
69937;SDS011;57248;47.320;15.998;2023-02-28T08:52:51;15.83;;;6.10;;
69937;SDS011;57248;47.320;15.998;2023-02-28T08:55:23;14.20;;;4.93;;
69937;SDS011;57248;47.320;15.998;2023-02-28T08:57:56;13.13;;;4.88;;
69937;SDS011;57248;47.320;15.998;2023-02-28T09:00:29;15.27;;;5.38;;
69937;SDS011;57248;47.320;15.998;2023-02-28T09:03:01;15.55;;;5.50;;
69937;SDS011;57248;47.320;15.998;2023-02-28T09:05:33;15.13;;;6.00;;
69937;SDS011;57248;47.320;15.998;2023-02-28T09:08:05;14.35;;;5.57;;
69937;SDS011;57248;47.320;15.998;2023-02-28T09:10:37;13.02;;;5.18;;
69937;SDS011;57248;47.320;15.998;2023-02-28T09:13:09;14.25;;;5.50;;
69937;SDS011;57248;47.320;15.998;2023-02-28T09:15:36;12.83;;;5.23;;
69937;SDS011;57248;47.320;15.998;2023-02-28T09:18:08;14.32;;;5.40;;
69937;SDS011;57248;47.320;15.998;2023-02-28T09:20:41;16.92;;;6.10;;
69937;SDS011;57248;47.320;15.998;2023-02-28T09:23:13;16.93;;;6.20;;
69937;SDS011;57248;47.320;15.998;2023-02-28T09:25:49;17.30;;;5.80;;
69937;SDS011;57248;47.320;15.998;2023-02-28T09:28:23;22.10;;;8.07;;
69937;SDS011;57248;47.320;15.998;2023-02-28T09:30:54;13.38;;;5.38;;
69937;SDS011;57248;47.320;15.998;2023-02-28T09:33:28;14.77;;;5.65;;
69937;SDS011;57248;47.320;15.998;2023-02-28T09:36:01;16.00;;;6.03;;
69937;SDS011;57248;47.320;15.998;2023-02-28T09:38:36;17.30;;;6.00;;
69937;SDS011;57248;47.320;15.998;2023-02-28T09:41:15;14.88;;;5.47;;
69937;SDS011;57248;47.320;15.998;2023-02-28T09:43:50;17.05;;;5.72;;
69937;SDS011;57248;47.320;15.998;2023-02-28T09:49:28;14.13;;;5.00;;
69937;SDS011;57248;47.320;15.998;2023-02-28T09:52:09;17.67;;;5.68;;
69937;SDS011;57248;47.320;15.998;2023-02-28T09:54:43;13.52;;;5.20;;
69937;SDS011;57248;47.320;15.998;2023-02-28T09:57:19;15.77;;;5.70;;
69937;SDS011;57248;47.320;15.998;2023-02-28T10:05:55;13.68;;;6.38;;
69937;SDS011;57248;47.320;15.998;2023-02-28T10:08:29;16.17;;;5.47;;
69937;SDS011;57248;47.320;15.998;2023-02-28T10:11:14;15.07;;;5.72;;
69937;SDS011;57248;47.320;15.998;2023-02-28T10:13:54;15.48;;;5.85;;
69937;SDS011;57248;47.320;15.998;2023-02-28T10:16:43;14.43;;;5.47;;
69937;SDS011;57248;47.320;15.998;2023-02-28T10:19:26;16.15;;;5.88;;
69937;SDS011;57248;47.320;15.998;2023-02-28T10:22:08;17.25;;;5.60;;
69937;SDS011;57248;47.320;15.998;2023-02-28T10:24:46;15.02;;;5.15;;
69937;SDS011;57248;47.320;15.998;2023-02-28T10:27:23;16.98;;;5.97;;
69937;SDS011;57248;47.320;15.998;2023-02-28T10:29:58;16.43;;;6.50;;
69937;SDS011;57248;47.320;15.998;2023-02-28T10:32:35;14.32;;;5.97;;
69937;SDS011;57248;47.320;15.998;2023-02-28T10:35:15;15.13;;;6.55;;
69937;SDS011;57248;47.320;15.998;2023-02-28T10:37:50;14.80;;;6.10;;
69937;SDS011;57248;47.320;15.998;2023-02-28T10:43:00;14.37;;;6.50;;
69937;SDS011;57248;47.320;15.998;2023-02-28T10:45:33;13.35;;;5.70;;
69937;SDS011;57248;47.320;15.998;2023-02-28T10:51:01;16.73;;;6.25;;
69937;SDS011;57248;47.320;15.998;2023-02-28T10:53:37;16.95;;;6.10;;
69937;SDS011;57248;47.320;15.998;2023-02-28T10:56:21;16.97;;;6.97;;
69937;SDS011;57248;47.320;15.998;2023-02-28T11:01:57;15.40;;;6.13;;
69937;SDS011;57248;47.320;15.998;2023-02-28T11:04:33;12.77;;;3.90;;
69937;SDS011;57248;47.320;15.998;2023-02-28T11:07:19;16.60;;;6.72;;
69937;SDS011;57248;47.320;15.998;2023-02-28T11:09:53;15.97;;;6.73;;
69937;SDS011;57248;47.320;15.998;2023-02-28T11:12:36;18.05;;;6.50;;
69937;SDS011;57248;47.320;15.998;2023-02-28T11:15:26;17.17;;;7.15;;
69937;SDS011;57248;47.320;15.998;2023-02-28T11:18:02;17.80;;;6.78;;
69937;SDS011;57248;47.320;15.998;2023-02-28T11:20:52;14.25;;;4.97;;
69937;SDS011;57248;47.320;15.998;2023-02-28T11:23:27;17.97;;;5.77;;
69937;SDS011;57248;47.320;15.998;2023-02-28T11:26:02;16.30;;;5.80;;
69937;SDS011;57248;47.320;15.998;2023-02-28T11:28:43;22.98;;;8.50;;
69937;SDS011;57248;47.320;15.998;2023-02-28T11:31:18;22.27;;;8.52;;
69937;SDS011;57248;47.320;15.998;2023-02-28T11:33:52;22.13;;;8.32;;
69937;SDS011;57248;47.320;15.998;2023-02-28T11:36:28;23.67;;;8.70;;
69937;SDS011;57248;47.320;15.998;2023-02-28T11:39:07;21.52;;;8.13;;
69937;SDS011;57248;47.320;15.998;2023-02-28T11:47:55;21.58;;;7.95;;
69937;SDS011;57248;47.320;15.998;2023-02-28T11:50:52;25.53;;;8.50;;
69937;SDS011;57248;47.320;15.998;2023-02-28T11:56:23;27.25;;;9.27;;
69937;SDS011;57248;47.320;15.998;2023-02-28T11:59:11;25.58;;;9.10;;
69937;SDS011;57248;47.320;15.998;2023-02-28T12:07:47;24.17;;;8.60;;
69937;SDS011;57248;47.320;15.998;2023-02-28T12:10:24;22.48;;;8.70;;
69937;SDS011;57248;47.320;15.998;2023-02-28T12:27:07;21.63;;;8.75;;
69937;SDS011;57248;47.320;15.998;2023-02-28T12:29:57;23.90;;;9.23;;
69937;SDS011;57248;47.320;15.998;2023-02-28T12:32:35;24.23;;;9.20;;
69937;SDS011;57248;47.320;15.998;2023-02-28T12:35:14;20.90;;;8.80;;
69937;SDS011;57248;47.320;15.998;2023-02-28T12:38:53;22.98;;;8.95;;
69937;SDS011;57248;47.320;15.998;2023-02-28T12:41:41;24.13;;;8.43;;
69937;SDS011;57248;47.320;15.998;2023-02-28T12:44:21;22.15;;;8.18;;
69937;SDS011;57248;47.320;15.998;2023-02-28T12:47:34;21.23;;;7.90;;
69937;SDS011;57248;47.320;15.998;2023-02-28T12:50:13;18.80;;;6.88;;
69937;SDS011;57248;47.320;15.998;2023-02-28T12:55:41;22.70;;;8.27;;
69937;SDS011;57248;47.320;15.998;2023-02-28T12:58:27;18.52;;;8.25;;
69937;SDS011;57248;47.320;15.998;2023-02-28T13:07:05;23.05;;;9.05;;
69937;SDS011;57248;47.320;15.998;2023-02-28T13:09:53;18.25;;;7.22;;
69937;SDS011;57248;47.320;15.998;2023-02-28T13:12:26;22.05;;;8.88;;
69937;SDS011;57248;47.320;15.998;2023-02-28T13:17:43;20.10;;;8.20;;
69937;SDS011;57248;47.320;15.998;2023-02-28T13:20:37;20.30;;;7.65;;
69937;SDS011;57248;47.320;15.998;2023-02-28T13:23:41;22.92;;;8.48;;
69937;SDS011;57248;47.320;15.998;2023-02-28T13:29:04;19.53;;;8.20;;
69937;SDS011;57248;47.320;15.998;2023-02-28T13:35:11;19.50;;;7.70;;
69937;SDS011;57248;47.320;15.998;2023-02-28T13:37:42;18.55;;;7.50;;
69937;SDS011;57248;47.320;15.998;2023-02-28T13:40:34;19.65;;;7.70;;
69937;SDS011;57248;47.320;15.998;2023-02-28T13:43:09;22.00;;;8.47;;
69937;SDS011;57248;47.320;15.998;2023-02-28T13:45:44;21.10;;;8.05;;
69937;SDS011;57248;47.320;15.998;2023-02-28T13:48:40;24.80;;;8.40;;
69937;SDS011;57248;47.320;15.998;2023-02-28T13:51:52;20.13;;;7.90;;
69937;SDS011;57248;47.320;15.998;2023-02-28T14:03:14;16.08;;;6.95;;
69937;SDS011;57248;47.320;15.998;2023-02-28T14:11:29;15.43;;;6.57;;
69937;SDS011;57248;47.320;15.998;2023-02-28T14:14:03;15.07;;;5.93;;
69937;SDS011;57248;47.320;15.998;2023-02-28T14:16:46;14.95;;;6.20;;
69937;SDS011;57248;47.320;15.998;2023-02-28T14:19:26;12.40;;;5.38;;
69937;SDS011;57248;47.320;15.998;2023-02-28T14:38:43;12.73;;;5.37;;
69937;SDS011;57248;47.320;15.998;2023-02-28T14:41:21;13.55;;;5.45;;
69937;SDS011;57248;47.320;15.998;2023-02-28T14:43:56;13.88;;;5.00;;
69937;SDS011;57248;47.320;15.998;2023-02-28T14:46:24;13.10;;;4.97;;
69937;SDS011;57248;47.320;15.998;2023-02-28T14:48:59;12.10;;;5.25;;
69937;SDS011;57248;47.320;15.998;2023-02-28T14:51:45;26.77;;;10.37;;
69937;SDS011;57248;47.320;15.998;2023-02-28T14:54:19;16.38;;;5.97;;
69937;SDS011;57248;47.320;15.998;2023-02-28T14:56:55;13.27;;;5.13;;
69937;SDS011;57248;47.320;15.998;2023-02-28T14:59:29;22.10;;;9.48;;
69937;SDS011;57248;47.320;15.998;2023-02-28T15:02:18;42.67;;;24.75;;
69937;SDS011;57248;47.320;15.998;2023-02-28T15:04:56;34.37;;;17.80;;
69937;SDS011;57248;47.320;15.998;2023-02-28T15:07:29;25.67;;;12.27;;
69937;SDS011;57248;47.320;15.998;2023-02-28T15:10:18;23.17;;;9.07;;
69937;SDS011;57248;47.320;15.998;2023-02-28T15:12:58;12.43;;;4.68;;
69937;SDS011;57248;47.320;15.998;2023-02-28T15:15:41;12.30;;;4.78;;
69937;SDS011;57248;47.320;15.998;2023-02-28T15:21:13;13.45;;;4.70;;
69937;SDS011;57248;47.320;15.998;2023-02-28T15:23:58;13.20;;;5.15;;
69937;SDS011;57248;47.320;15.998;2023-02-28T15:26:46;13.38;;;4.40;;
69937;SDS011;57248;47.320;15.998;2023-02-28T15:29:21;13.27;;;5.25;;
69937;SDS011;57248;47.320;15.998;2023-02-28T15:31:55;14.40;;;5.23;;
69937;SDS011;57248;47.320;15.998;2023-02-28T15:34:24;13.25;;;5.15;;
69937;SDS011;57248;47.320;15.998;2023-02-28T15:37:06;16.88;;;6.00;;
69937;SDS011;57248;47.320;15.998;2023-02-28T15:40:35;18.90;;;7.75;;
69937;SDS011;57248;47.320;15.998;2023-02-28T15:43:04;14.02;;;5.78;;
69937;SDS011;57248;47.320;15.998;2023-02-28T15:45:38;19.03;;;6.83;;
69937;SDS011;57248;47.320;15.998;2023-02-28T15:48:23;15.43;;;5.40;;
69937;SDS011;57248;47.320;15.998;2023-02-28T15:51:02;16.50;;;7.03;;
69937;SDS011;57248;47.320;15.998;2023-02-28T15:56:27;16.90;;;6.43;;
69937;SDS011;57248;47.320;15.998;2023-02-28T15:59:02;14.40;;;5.50;;
69937;SDS011;57248;47.320;15.998;2023-02-28T16:01:36;16.35;;;6.28;;
69937;SDS011;57248;47.320;15.998;2023-02-28T16:04:17;16.95;;;6.32;;
69937;SDS011;57248;47.320;15.998;2023-02-28T16:07:04;16.38;;;6.10;;
69937;SDS011;57248;47.320;15.998;2023-02-28T16:09:37;16.30;;;6.22;;
69937;SDS011;57248;47.320;15.998;2023-02-28T16:12:11;17.20;;;7.40;;
69937;SDS011;57248;47.320;15.998;2023-02-28T16:14:46;17.20;;;7.10;;
69937;SDS011;57248;47.320;15.998;2023-02-28T16:17:26;16.90;;;6.72;;
69937;SDS011;57248;47.320;15.998;2023-02-28T16:20:01;22.10;;;8.65;;
69937;SDS011;57248;47.320;15.998;2023-02-28T16:22:36;21.88;;;8.68;;
69937;SDS011;57248;47.320;15.998;2023-02-28T16:25:12;15.40;;;5.67;;
69937;SDS011;57248;47.320;15.998;2023-02-28T16:27:47;15.52;;;5.53;;
69937;SDS011;57248;47.320;15.998;2023-02-28T16:30:25;13.38;;;4.93;;
69937;SDS011;57248;47.320;15.998;2023-02-28T16:32:58;16.50;;;5.30;;
69937;SDS011;57248;47.320;15.998;2023-02-28T16:35:30;15.75;;;5.25;;
69937;SDS011;57248;47.320;15.998;2023-02-28T16:38:02;19.13;;;5.27;;
69937;SDS011;57248;47.320;15.998;2023-02-28T16:40:35;27.35;;;5.68;;
69937;SDS011;57248;47.320;15.998;2023-02-28T16:43:09;26.38;;;6.18;;
69937;SDS011;57248;47.320;15.998;2023-02-28T16:45:46;23.15;;;5.93;;
69937;SDS011;57248;47.320;15.998;2023-02-28T16:48:18;21.17;;;6.03;;
69937;SDS011;57248;47.320;15.998;2023-02-28T16:50:44;14.00;;;4.90;;
69937;SDS011;57248;47.320;15.998;2023-02-28T16:53:17;16.25;;;5.15;;
69937;SDS011;57248;47.320;15.998;2023-02-28T16:55:48;16.13;;;5.67;;
69937;SDS011;57248;47.320;15.998;2023-02-28T16:58:21;15.02;;;4.95;;
69937;SDS011;57248;47.320;15.998;2023-02-28T17:00:56;17.58;;;6.10;;
69937;SDS011;57248;47.320;15.998;2023-02-28T17:03:29;16.60;;;5.55;;
69937;SDS011;57248;47.320;15.998;2023-02-28T17:06:02;13.30;;;5.15;;
69937;SDS011;57248;47.320;15.998;2023-02-28T17:08:34;16.33;;;5.70;;
69937;SDS011;57248;47.320;15.998;2023-02-28T17:11:08;17.17;;;6.18;;
69937;SDS011;57248;47.320;15.998;2023-02-28T17:13:39;15.20;;;5.55;;
69937;SDS011;57248;47.320;15.998;2023-02-28T17:16:45;18.27;;;6.43;;
69937;SDS011;57248;47.320;15.998;2023-02-28T17:19:14;15.23;;;5.45;;
69937;SDS011;57248;47.320;15.998;2023-02-28T17:21:47;15.27;;;5.27;;
69937;SDS011;57248;47.320;15.998;2023-02-28T17:24:19;17.02;;;5.30;;
69937;SDS011;57248;47.320;15.998;2023-02-28T17:26:51;20.42;;;6.25;;
69937;SDS011;57248;47.320;15.998;2023-02-28T17:29:23;19.83;;;6.35;;
69937;SDS011;57248;47.320;15.998;2023-02-28T17:31:56;19.67;;;6.82;;
69937;SDS011;57248;47.320;15.998;2023-02-28T17:34:28;19.80;;;6.43;;
69937;SDS011;57248;47.320;15.998;2023-02-28T17:37:00;17.73;;;6.20;;